This is the latest recevied weather packets stored in our database for station/object OK3MS-5. If no packets are shown the sender has not sent any weather packets the latest 10 day(s).
| Time | Temp. | Humidity | Pressure | Rain* | Wind** | Luminosity | Snow |
|---|---|---|---|---|---|---|---|
| 1787488805 | 20.56° C | 47% | 1019.6 hPa | 0 mm | - | 745 W/m² | - |
| 1787488504 | 21.11° C | 49% | 1019.7 hPa | 0 mm | - | 276 W/m² | - |
| 1787488203 | 21.11° C | 47% | 1019.7 hPa | 0 mm | - | 123 W/m² | - |
| 1787487903 | 21.11° C | 47% | 1019.7 hPa | 0 mm | - | 713 W/m² | - |
| 1787487604 | 20.56° C | 48% | 1019.8 hPa | 0 mm | - | 719 W/m² | - |
| 1787487304 | 21.11° C | 49% | 1019.6 hPa | 0 mm | - | 695 W/m² | - |
| 1787487006 | 21.11° C | 47% | 1019.7 hPa | 0 mm | - | 698 W/m² | - |
| 1787486704 | 20.56° C | 49% | 1019.8 hPa | 0 mm | - | 483 W/m² | - |
| 1787486403 | 21.11° C | 50% | 1019.7 hPa | 0 mm | - | 732 W/m² | - |
| 1787486103 | 21.11° C | 48% | 1019.7 hPa | 0 mm | - | 703 W/m² | - |
| 1787485802 | 21.11° C | 48% | 1019.7 hPa | 0 mm | - | 391 W/m² | - |
| 1787485502 | 20° C | 50% | 1020 hPa | 0 mm | - | 706 W/m² | - |
| 1787485205 | 20° C | 52% | 1020.1 hPa | 0 mm | - | 681 W/m² | - |
| 1787484903 | 20.56° C | 50% | 1020.1 hPa | 0 mm | - | 163 W/m² | - |
| 1787484603 | 20.56° C | 50% | 1020.1 hPa | 0 mm | - | 731 W/m² | - |
| 1787484305 | 20° C | 52% | 1020.1 hPa | 0 mm | - | 731 W/m² | - |
| 1787484004 | 20° C | 52% | 1020.3 hPa | 0 mm | - | 186 W/m² | - |
| 1787483702 | 20.56° C | 52% | 1020.2 hPa | 0 mm | - | 160 W/m² | - |
| 1787483402 | 20° C | 52% | 1020.3 hPa | 0 mm | - | 804 W/m² | - |
| 1787483105 | 19.44° C | 53% | 1020.4 hPa | 0 mm | - | 766 W/m² | - |
| 1787482803 | 20° C | 53% | 1020.3 hPa | 0 mm | - | 788 W/m² | - |
| 1787482505 | 20° C | 53% | 1020.4 hPa | 0 mm | - | 762 W/m² | - |
| 1787482202 | 19.44° C | 53% | 1020.6 hPa | 0 mm | - | 719 W/m² | - |
| 1787481903 | 20° C | 53% | 1020.4 hPa | 0 mm | - | 721 W/m² | - |
| 1787481603 | 20.56° C | 53% | 1020.3 hPa | 0 mm | - | 709 W/m² | - |
* Rain latest hour (hover to see other rain measurements)
** Current wind speed in m/s (hover to see current wind gust speed)